createdAt,value
2023-05-12T00:00:46.148Z,0.00
2023-05-12T00:01:36.937Z,0.00
2023-05-12T00:02:27.853Z,0.00
2023-05-12T00:03:18.713Z,0.00
2023-05-12T00:04:09.622Z,0.00
2023-05-12T00:05:00.466Z,0.00
2023-05-12T00:05:51.194Z,0.00
2023-05-12T00:06:41.988Z,0.00
2023-05-12T00:07:32.797Z,0.00
2023-05-12T00:08:23.591Z,0.00
2023-05-12T00:09:14.358Z,0.00
2023-05-12T00:10:05.109Z,0.00
2023-05-12T00:10:55.892Z,0.00
2023-05-12T00:11:46.681Z,0.00
2023-05-12T00:12:37.423Z,0.00
2023-05-12T00:13:28.193Z,0.00
2023-05-12T00:14:18.959Z,0.00
2023-05-12T00:15:09.699Z,0.00
2023-05-12T00:16:00.474Z,0.00
2023-05-12T00:16:51.210Z,0.00
2023-05-12T00:17:42.000Z,0.00
2023-05-12T00:18:32.786Z,0.00
2023-05-12T00:19:23.490Z,0.00
2023-05-12T00:20:14.263Z,0.00
2023-05-12T00:21:05.045Z,0.00
2023-05-12T00:21:55.845Z,0.00
2023-05-12T00:22:46.621Z,0.00
2023-05-12T00:23:37.417Z,0.00
2023-05-12T00:24:28.177Z,0.00
2023-05-12T00:25:18.947Z,0.00
2023-05-12T00:26:09.723Z,0.00
2023-05-12T00:27:00.506Z,0.00
2023-05-12T00:27:51.319Z,0.00
2023-05-12T00:28:42.092Z,0.00
2023-05-12T00:29:32.885Z,0.00
2023-05-12T00:30:23.656Z,0.00
2023-05-12T00:31:14.441Z,0.00
2023-05-12T00:32:05.195Z,0.00
2023-05-12T00:32:55.931Z,0.00
2023-05-12T00:33:46.706Z,0.00
2023-05-12T00:34:37.509Z,0.00
2023-05-12T00:35:28.287Z,0.00
2023-05-12T00:36:19.065Z,0.00
2023-05-12T00:37:09.865Z,0.00
2023-05-12T00:38:00.632Z,0.00
2023-05-12T00:38:51.432Z,0.00
2023-05-12T00:39:42.182Z,0.00
2023-05-12T00:40:32.982Z,0.00
2023-05-12T00:41:23.733Z,0.00
2023-05-12T00:42:14.522Z,0.00
2023-05-12T00:43:05.275Z,0.00
2023-05-12T00:43:55.978Z,0.00
2023-05-12T00:44:46.759Z,0.00
2023-05-12T00:45:37.577Z,0.00
2023-05-12T00:46:28.425Z,0.00
2023-05-12T00:47:19.210Z,0.00
2023-05-12T00:48:10.039Z,0.00
2023-05-12T00:49:00.788Z,0.00
2023-05-12T00:49:51.509Z,0.00
2023-05-12T00:50:42.296Z,0.00
2023-05-12T00:51:33.101Z,0.00
2023-05-12T00:52:23.878Z,0.00
2023-05-12T00:53:14.659Z,0.00
2023-05-12T00:54:05.453Z,0.00
2023-05-12T00:54:56.209Z,0.00
2023-05-12T00:55:46.985Z,0.00
2023-05-12T00:56:37.766Z,0.00
2023-05-12T00:57:28.583Z,0.00
2023-05-12T00:58:19.340Z,0.00
2023-05-12T00:59:10.125Z,0.00
2023-05-12T01:00:00.908Z,0.00
2023-05-12T01:00:51.711Z,0.00
2023-05-12T01:01:42.498Z,0.00
2023-05-12T01:02:33.289Z,0.00
2023-05-12T01:03:24.154Z,0.00
2023-05-12T01:04:14.838Z,0.00
2023-05-12T01:05:05.569Z,0.00
2023-05-12T01:05:56.366Z,0.00
2023-05-12T01:06:47.177Z,0.00
2023-05-12T01:07:37.953Z,0.00
2023-05-12T01:08:28.733Z,0.00
2023-05-12T01:09:19.526Z,0.00
2023-05-12T01:10:10.279Z,0.00
2023-05-12T01:11:01.059Z,0.00
2023-05-12T01:11:52.077Z,0.00
2023-05-12T01:12:42.867Z,0.00
2023-05-12T01:13:33.599Z,0.00
2023-05-12T01:14:24.375Z,0.00
2023-05-12T01:15:15.141Z,0.00
2023-05-12T01:16:05.939Z,0.00
2023-05-12T01:16:56.765Z,0.00
2023-05-12T01:17:47.613Z,0.00
2023-05-12T01:18:38.442Z,0.00
2023-05-12T01:19:29.187Z,0.00
2023-05-12T01:20:20.191Z,0.00
2023-05-12T01:21:11.093Z,0.00
2023-05-12T01:22:01.893Z,0.00
2023-05-12T01:22:52.669Z,0.00
2023-05-12T01:23:43.466Z,0.00
2023-05-12T01:24:34.199Z,0.00
2023-05-12T01:25:24.990Z,0.00
2023-05-12T01:26:15.763Z,0.00
2023-05-12T01:27:06.574Z,0.00
2023-05-12T01:27:57.356Z,0.00
2023-05-12T01:28:48.137Z,0.00
2023-05-12T01:29:38.926Z,0.00
2023-05-12T01:30:29.643Z,0.00
2023-05-12T01:31:21.236Z,0.00
2023-05-12T01:32:11.435Z,0.00
2023-05-12T01:33:02.280Z,0.00
2023-05-12T01:33:53.056Z,0.00
2023-05-12T01:34:43.843Z,0.00
2023-05-12T01:35:34.636Z,0.00
2023-05-12T01:36:25.447Z,0.00
2023-05-12T01:37:16.210Z,0.00
2023-05-12T01:38:07.000Z,0.00
2023-05-12T01:38:57.790Z,0.00
2023-05-12T01:39:48.511Z,0.00
2023-05-12T01:40:39.221Z,0.00
2023-05-12T01:41:30.021Z,0.00
2023-05-12T01:42:20.867Z,0.00
2023-05-12T01:43:11.612Z,0.00
2023-05-12T01:44:02.408Z,0.00
2023-05-12T01:44:53.185Z,0.00
2023-05-12T01:45:43.970Z,0.00
2023-05-12T01:46:34.756Z,0.00
2023-05-12T01:47:25.519Z,0.00
2023-05-12T01:48:16.282Z,0.00
2023-05-12T01:49:06.949Z,0.00
2023-05-12T01:49:57.838Z,0.00
2023-05-12T01:50:48.581Z,0.00
2023-05-12T01:51:39.346Z,0.00
2023-05-12T01:52:30.081Z,0.00
2023-05-12T01:53:20.863Z,0.00
2023-05-12T01:54:11.576Z,0.00
2023-05-12T01:55:02.339Z,0.00
2023-05-12T01:55:53.093Z,0.00
2023-05-12T01:56:43.877Z,0.00
2023-05-12T01:57:34.642Z,0.00
2023-05-12T01:58:25.427Z,0.00
2023-05-12T01:59:16.236Z,0.00
2023-05-12T02:00:07.055Z,0.00
2023-05-12T02:00:57.831Z,0.00
2023-05-12T02:01:48.641Z,0.00
2023-05-12T02:02:41.460Z,0.00
2023-05-12T02:03:30.280Z,0.00
2023-05-12T02:04:21.010Z,0.00
2023-05-12T02:05:11.796Z,0.00
2023-05-12T02:06:02.578Z,0.00
2023-05-12T02:06:53.307Z,0.00
2023-05-12T02:07:44.111Z,0.00
2023-05-12T02:08:35.378Z,0.00
2023-05-12T02:09:26.168Z,0.00
2023-05-12T02:10:17.085Z,0.00
2023-05-12T02:11:07.843Z,0.00
2023-05-12T02:11:58.668Z,0.00
2023-05-12T02:12:49.459Z,0.00
2023-05-12T02:13:40.189Z,0.00
2023-05-12T02:14:31.577Z,0.00
2023-05-12T02:15:22.269Z,0.00
2023-05-12T02:16:13.134Z,0.00
2023-05-12T02:17:03.712Z,0.00
2023-05-12T02:17:54.506Z,0.00
2023-05-12T02:18:45.196Z,0.00
2023-05-12T02:19:36.476Z,0.00
2023-05-12T02:20:27.622Z,0.00
2023-05-12T02:21:18.768Z,0.00
2023-05-12T02:22:09.976Z,0.00
2023-05-12T02:23:01.188Z,0.00
2023-05-12T02:23:51.990Z,0.00
2023-05-12T02:24:42.931Z,0.00
2023-05-12T02:25:34.237Z,0.00
2023-05-12T02:26:25.251Z,0.00
2023-05-12T02:27:16.287Z,0.00
2023-05-12T02:28:07.406Z,0.00
2023-05-12T02:28:58.690Z,0.00
2023-05-12T02:29:49.626Z,0.00
2023-05-12T02:30:40.720Z,0.00
2023-05-12T02:31:31.793Z,0.00
2023-05-12T02:32:23.092Z,0.00
2023-05-12T02:33:13.832Z,0.00
2023-05-12T02:34:06.455Z,0.00
2023-05-12T02:34:55.504Z,0.00
2023-05-12T02:35:46.264Z,0.00
2023-05-12T02:36:37.036Z,0.00
2023-05-12T02:37:27.827Z,0.00
2023-05-12T02:38:18.580Z,0.00
2023-05-12T02:39:09.378Z,0.00
2023-05-12T02:40:00.160Z,0.00
2023-05-12T02:40:50.933Z,0.00
2023-05-12T02:41:41.684Z,0.00
2023-05-12T02:42:32.447Z,0.00
2023-05-12T02:43:23.221Z,0.00
2023-05-12T02:44:14.023Z,0.00
2023-05-12T02:45:04.783Z,0.00
2023-05-12T02:45:55.624Z,0.00
2023-05-12T02:46:46.341Z,0.00
2023-05-12T02:47:37.131Z,0.00
2023-05-12T02:48:27.881Z,0.00
2023-05-12T02:49:18.675Z,0.00
2023-05-12T02:50:09.418Z,0.00
2023-05-12T02:51:00.163Z,0.00
2023-05-12T02:51:50.908Z,0.00
2023-05-12T02:52:41.790Z,0.00
2023-05-12T02:53:32.650Z,0.00
2023-05-12T02:54:23.522Z,0.00
2023-05-12T02:55:14.405Z,0.00
2023-05-12T02:56:05.292Z,0.00
2023-05-12T02:56:56.147Z,0.00
2023-05-12T02:57:46.949Z,0.00
2023-05-12T02:58:37.749Z,0.00
2023-05-12T02:59:28.524Z,0.00
2023-05-12T03:00:19.471Z,0.00
2023-05-12T03:01:11.541Z,0.00
2023-05-12T03:02:01.403Z,0.00
2023-05-12T03:02:52.060Z,0.00
2023-05-12T03:03:43.278Z,0.00
2023-05-12T03:04:33.654Z,0.00
2023-05-12T03:05:24.450Z,0.00
2023-05-12T03:06:15.531Z,0.00
2023-05-12T03:07:06.368Z,0.00
2023-05-12T03:07:57.201Z,0.00
2023-05-12T03:08:48.059Z,0.00
2023-05-12T03:09:38.936Z,0.00
2023-05-12T03:10:29.818Z,0.00
2023-05-12T03:11:20.702Z,0.00
2023-05-12T03:12:11.545Z,0.00
2023-05-12T03:13:02.419Z,0.00
2023-05-12T03:13:53.296Z,0.00
2023-05-12T03:14:44.193Z,0.00
2023-05-12T03:15:35.082Z,0.00
2023-05-12T03:16:25.980Z,0.00
2023-05-12T03:17:16.847Z,0.00
2023-05-12T03:18:07.789Z,0.00
2023-05-12T03:18:58.633Z,0.00
2023-05-12T03:19:49.454Z,0.00
2023-05-12T03:20:40.342Z,0.00
2023-05-12T03:21:31.196Z,0.00
2023-05-12T03:22:22.085Z,0.00
2023-05-12T03:23:12.935Z,0.00
2023-05-12T03:24:03.804Z,0.00
2023-05-12T03:24:54.673Z,0.00
2023-05-12T03:25:45.548Z,0.00
2023-05-12T03:26:36.439Z,0.00
2023-05-12T03:27:27.280Z,0.00
2023-05-12T03:28:18.161Z,0.00
2023-05-12T03:29:09.048Z,0.00
2023-05-12T03:29:59.933Z,0.00
2023-05-12T03:30:50.804Z,0.00
2023-05-12T03:31:41.765Z,0.00
2023-05-12T03:32:32.633Z,0.00
2023-05-12T03:33:23.518Z,0.00
2023-05-12T03:34:14.417Z,0.00
2023-05-12T03:35:05.282Z,0.00
2023-05-12T03:35:56.169Z,0.00
2023-05-12T03:36:47.056Z,0.00
2023-05-12T03:37:37.934Z,0.00
2023-05-12T03:38:28.814Z,0.00
2023-05-12T03:39:19.695Z,0.00
2023-05-12T03:40:10.584Z,0.00
2023-05-12T03:41:01.457Z,0.00
2023-05-12T03:41:52.356Z,0.00
2023-05-12T03:42:43.216Z,0.00
2023-05-12T03:43:34.096Z,0.00
2023-05-12T03:44:24.987Z,0.00
2023-05-12T03:45:15.854Z,0.00
2023-05-12T03:46:06.798Z,0.00
2023-05-12T03:46:57.682Z,0.00
2023-05-12T03:47:48.695Z,0.00
2023-05-12T03:48:39.583Z,0.00
2023-05-12T03:49:30.521Z,0.00
2023-05-12T03:50:21.594Z,0.00
2023-05-12T03:51:12.549Z,0.00
2023-05-12T03:52:03.457Z,0.00
2023-05-12T03:52:54.325Z,0.00
2023-05-12T03:53:45.247Z,0.00
2023-05-12T03:54:37.930Z,0.00
2023-05-12T03:55:27.009Z,0.00
2023-05-12T03:56:17.851Z,0.00
2023-05-12T03:57:08.751Z,0.00
2023-05-12T03:57:59.633Z,0.00
2023-05-12T03:58:50.512Z,0.00
2023-05-12T03:59:41.399Z,0.00
2023-05-12T04:00:32.260Z,0.00
2023-05-12T04:01:23.134Z,0.00
2023-05-12T04:02:14.045Z,0.00
2023-05-12T04:03:04.966Z,0.00
2023-05-12T04:03:55.837Z,0.00
2023-05-12T04:04:46.729Z,0.00
2023-05-12T04:05:37.602Z,0.00
2023-05-12T04:06:28.484Z,0.00
2023-05-12T04:07:19.370Z,0.00
2023-05-12T04:08:10.270Z,0.00
2023-05-12T04:09:01.144Z,5.62
2023-05-12T04:09:52.064Z,5.62
2023-05-12T04:10:42.924Z,5.62
2023-05-12T04:11:33.811Z,5.62
2023-05-12T04:12:24.716Z,5.62
2023-05-12T04:13:15.839Z,5.62
2023-05-12T04:14:06.720Z,5.62
2023-05-12T04:14:57.591Z,5.62
2023-05-12T04:15:48.467Z,5.62
2023-05-12T04:16:39.373Z,5.62
2023-05-12T04:17:30.277Z,5.62
2023-05-12T04:18:21.158Z,5.62
2023-05-12T04:19:12.096Z,5.62
2023-05-12T04:20:02.929Z,5.62
2023-05-12T04:20:53.820Z,5.62
2023-05-12T04:21:44.684Z,5.62
2023-05-12T04:22:35.574Z,5.62
2023-05-12T04:23:26.462Z,5.62
2023-05-12T04:24:17.317Z,5.62
2023-05-12T04:25:08.217Z,5.62
2023-05-12T04:25:59.105Z,5.62
2023-05-12T04:26:50.022Z,5.62
2023-05-12T04:27:40.957Z,5.62
2023-05-12T04:28:31.831Z,5.62
2023-05-12T04:29:22.722Z,5.62
2023-05-12T04:30:13.604Z,5.62
2023-05-12T04:31:04.509Z,5.62
2023-05-12T04:31:55.414Z,5.62
2023-05-12T04:32:46.303Z,5.62
2023-05-12T04:33:37.180Z,5.62
2023-05-12T04:34:28.035Z,5.62
2023-05-12T04:35:18.929Z,5.62
2023-05-12T04:36:09.818Z,5.62
2023-05-12T04:37:00.697Z,5.62
2023-05-12T04:37:51.596Z,5.62
2023-05-12T04:38:42.479Z,5.62
2023-05-12T04:39:33.126Z,5.62
2023-05-12T04:40:23.817Z,5.62
2023-05-12T04:41:15.602Z,5.62
2023-05-12T04:42:05.893Z,5.62
2023-05-12T04:42:56.806Z,5.62
2023-05-12T04:44:38.437Z,5.62
2023-05-12T04:45:29.320Z,5.62
2023-05-12T04:46:20.277Z,5.62
2023-05-12T04:47:11.137Z,5.62
2023-05-12T04:48:02.068Z,5.62
2023-05-12T04:48:52.949Z,5.62
2023-05-12T04:49:43.843Z,5.62
2023-05-12T04:50:34.721Z,5.62
2023-05-12T04:51:25.612Z,5.62
2023-05-12T04:52:16.498Z,5.62
2023-05-12T04:53:07.401Z,5.62
2023-05-12T04:53:58.302Z,5.62
2023-05-12T04:54:49.184Z,5.62
2023-05-12T04:55:40.070Z,5.62
2023-05-12T04:56:30.955Z,11.25
2023-05-12T04:57:21.872Z,11.25
2023-05-12T04:58:12.803Z,11.25
2023-05-12T04:59:03.685Z,11.25
2023-05-12T04:59:54.595Z,11.25
2023-05-12T05:00:45.486Z,11.25
2023-05-12T05:01:36.417Z,11.25
2023-05-12T05:02:27.345Z,11.25
2023-05-12T05:03:18.288Z,11.25
2023-05-12T05:04:09.176Z,11.25
2023-05-12T05:05:00.142Z,11.25
2023-05-12T05:05:51.014Z,11.25
2023-05-12T05:06:41.924Z,11.25
2023-05-12T05:07:32.868Z,11.25
2023-05-12T05:08:23.759Z,11.25
2023-05-12T05:09:14.674Z,11.25
2023-05-12T05:10:05.583Z,11.25
2023-05-12T05:10:56.479Z,11.25
2023-05-12T05:11:47.393Z,11.25
2023-05-12T05:12:38.308Z,11.25
2023-05-12T05:13:29.276Z,11.25
2023-05-12T05:14:20.108Z,11.25
2023-05-12T05:15:11.017Z,11.25
2023-05-12T05:16:01.963Z,11.25
2023-05-12T05:16:52.834Z,11.25
2023-05-12T05:17:44.010Z,11.25
2023-05-12T05:18:34.890Z,11.25
2023-05-12T05:19:39.181Z,11.25
2023-05-12T05:20:17.779Z,11.25
2023-05-12T05:21:07.499Z,16.88
2023-05-12T05:21:58.368Z,16.88
2023-05-12T05:22:49.297Z,16.88
2023-05-12T05:23:40.201Z,16.88
2023-05-12T05:24:31.122Z,16.88
2023-05-12T05:25:22.120Z,16.88
2023-05-12T05:26:12.966Z,16.88
2023-05-12T05:27:03.886Z,16.88
2023-05-12T05:27:54.792Z,16.88
2023-05-12T05:28:45.830Z,16.88
2023-05-12T05:29:36.662Z,16.88
2023-05-12T05:30:27.597Z,16.88
2023-05-12T05:31:18.528Z,16.88
2023-05-12T05:32:09.417Z,22.50
2023-05-12T05:33:00.372Z,22.50
2023-05-12T05:33:51.249Z,22.50
2023-05-12T05:34:42.188Z,22.50
2023-05-12T05:35:33.056Z,22.50
2023-05-12T05:36:23.956Z,22.50
2023-05-12T05:37:14.862Z,22.50
2023-05-12T05:38:05.797Z,22.50
2023-05-12T05:38:56.699Z,22.50
2023-05-12T05:39:47.610Z,22.50
2023-05-12T05:40:51.590Z,28.12
2023-05-12T05:41:30.455Z,28.12
2023-05-12T05:42:20.149Z,28.12
2023-05-12T05:43:11.048Z,28.12
2023-05-12T05:44:01.967Z,28.12
2023-05-12T05:44:52.862Z,28.12
2023-05-12T05:45:43.767Z,16.88
2023-05-12T05:46:34.731Z,16.88
2023-05-12T05:47:25.605Z,16.88
2023-05-12T05:48:16.508Z,28.12
2023-05-12T05:49:07.394Z,28.12
2023-05-12T05:49:58.292Z,28.12
2023-05-12T05:50:49.194Z,22.50
2023-05-12T05:51:40.100Z,28.12
2023-05-12T05:52:30.994Z,22.50
2023-05-12T05:53:22.676Z,22.50
2023-05-12T05:54:13.126Z,28.12
2023-05-12T05:55:04.003Z,28.12
2023-05-12T05:55:54.923Z,22.50
2023-05-12T05:56:45.822Z,22.50
2023-05-12T05:57:36.745Z,28.12
2023-05-12T05:58:27.653Z,28.12
2023-05-12T05:59:18.642Z,28.12
2023-05-12T06:00:09.497Z,28.12
2023-05-12T06:01:00.407Z,28.12
2023-05-12T06:01:51.338Z,28.12
2023-05-12T06:02:42.484Z,22.50
2023-05-12T06:03:33.435Z,28.12
2023-05-12T06:04:24.384Z,22.50
2023-05-12T06:05:15.244Z,16.88
2023-05-12T06:06:06.158Z,16.88
2023-05-12T06:06:57.050Z,16.88
2023-05-12T06:07:47.965Z,16.88
2023-05-12T06:08:38.860Z,16.88
2023-05-12T06:09:29.800Z,16.88
2023-05-12T06:10:20.838Z,22.50
2023-05-12T06:11:11.863Z,5.62
2023-05-12T06:12:02.748Z,16.88
2023-05-12T06:12:53.679Z,16.88
2023-05-12T06:13:44.570Z,28.12
2023-05-12T06:14:35.491Z,22.50
2023-05-12T06:15:26.369Z,22.50
2023-05-12T06:16:17.330Z,16.88
2023-05-12T06:17:08.192Z,16.88
2023-05-12T06:17:59.158Z,28.12
2023-05-12T06:18:50.069Z,22.50
2023-05-12T06:19:40.943Z,16.88
2023-05-12T06:20:31.859Z,16.88
2023-05-12T06:21:22.773Z,22.50
2023-05-12T06:22:13.668Z,16.88
2023-05-12T06:23:04.600Z,16.88
2023-05-12T06:23:55.515Z,16.88
2023-05-12T06:24:46.428Z,16.88
2023-05-12T06:25:37.333Z,16.88
2023-05-12T06:26:28.242Z,16.88
2023-05-12T06:27:19.145Z,16.88
2023-05-12T06:28:10.072Z,22.50
2023-05-12T06:29:00.982Z,22.50
2023-05-12T06:29:52.024Z,22.50
2023-05-12T06:30:42.861Z,22.50
2023-05-12T06:31:33.879Z,22.50
2023-05-12T06:32:24.757Z,16.88
2023-05-12T06:33:15.677Z,16.88
2023-05-12T06:34:06.591Z,16.88
2023-05-12T06:34:57.495Z,16.88
2023-05-12T06:35:48.451Z,16.88
2023-05-12T06:36:39.330Z,16.88
2023-05-12T06:37:30.238Z,22.50
2023-05-12T06:38:21.155Z,16.88
2023-05-12T06:39:12.069Z,28.12
2023-05-12T06:40:02.995Z,22.50
2023-05-12T06:40:53.884Z,22.50
2023-05-12T06:41:44.791Z,33.75
2023-05-12T06:42:35.709Z,22.50
2023-05-12T06:43:26.659Z,22.50
2023-05-12T06:44:17.527Z,33.75
2023-05-12T06:45:08.453Z,28.12
2023-05-12T06:45:59.390Z,39.38
2023-05-12T06:46:50.248Z,28.12
2023-05-12T06:47:41.185Z,28.12
2023-05-12T06:48:32.070Z,22.50
2023-05-12T06:49:22.983Z,33.75
2023-05-12T06:50:13.892Z,45.00
2023-05-12T06:51:04.805Z,45.00
2023-05-12T06:51:55.697Z,28.12
2023-05-12T06:52:46.607Z,33.75
2023-05-12T06:53:37.519Z,39.38
2023-05-12T06:54:28.439Z,39.38
2023-05-12T06:55:19.641Z,33.75
2023-05-12T06:56:10.140Z,39.38
2023-05-12T06:57:01.068Z,33.75
2023-05-12T06:57:51.959Z,39.38
2023-05-12T06:58:42.878Z,33.75
2023-05-12T06:59:33.786Z,33.75
2023-05-12T07:00:24.772Z,56.25
2023-05-12T07:01:15.701Z,56.25
2023-05-12T07:02:06.551Z,39.38
2023-05-12T07:02:57.477Z,39.38
2023-05-12T07:03:48.402Z,39.38
2023-05-12T07:04:39.318Z,33.75
2023-05-12T07:05:30.234Z,33.75
2023-05-12T07:06:21.132Z,33.75
2023-05-12T07:07:12.008Z,33.75
2023-05-12T07:08:02.916Z,33.75
2023-05-12T07:08:53.817Z,50.62
2023-05-12T07:09:44.722Z,28.12
2023-05-12T07:10:35.630Z,61.88
2023-05-12T07:11:26.554Z,33.75
2023-05-12T07:12:17.459Z,39.38
2023-05-12T07:13:08.394Z,39.38
2023-05-12T07:13:59.308Z,33.75
2023-05-12T07:14:50.255Z,33.75
2023-05-12T07:15:41.221Z,33.75
2023-05-12T07:16:32.129Z,33.75
2023-05-12T07:17:24.654Z,61.88
2023-05-12T07:18:20.822Z,45.00
2023-05-12T07:19:04.438Z,33.75
2023-05-12T07:19:55.304Z,33.75
2023-05-12T07:20:46.262Z,33.75
2023-05-12T07:21:37.165Z,33.75
2023-05-12T07:22:28.070Z,67.50
2023-05-12T07:23:18.983Z,67.50
2023-05-12T07:24:09.905Z,33.75
2023-05-12T07:25:00.850Z,45.00
2023-05-12T07:25:51.721Z,67.50
2023-05-12T07:26:42.646Z,45.00
2023-05-12T07:27:33.562Z,45.00
2023-05-12T07:28:24.486Z,39.38
2023-05-12T07:29:15.403Z,33.75
2023-05-12T07:30:06.317Z,39.38
2023-05-12T07:30:57.288Z,39.38
2023-05-12T07:31:48.219Z,39.38
2023-05-12T07:32:39.169Z,45.00
2023-05-12T07:33:30.045Z,50.62
2023-05-12T07:34:20.961Z,50.62
2023-05-12T07:35:11.871Z,56.25
2023-05-12T07:36:02.794Z,39.38
2023-05-12T07:36:53.705Z,78.75
2023-05-12T07:37:44.638Z,39.38
2023-05-12T07:38:35.532Z,39.38
2023-05-12T07:39:26.457Z,39.38
2023-05-12T07:40:17.370Z,39.38
2023-05-12T07:41:08.303Z,78.75
2023-05-12T07:41:59.222Z,84.38
2023-05-12T07:42:50.149Z,84.38
2023-05-12T07:43:41.093Z,50.62
2023-05-12T07:44:32.025Z,45.00
2023-05-12T07:45:22.977Z,39.38
2023-05-12T07:46:13.985Z,73.12
2023-05-12T07:47:04.853Z,84.38
2023-05-12T07:47:55.818Z,45.00
2023-05-12T07:48:46.681Z,45.00
2023-05-12T07:49:37.604Z,39.38
2023-05-12T07:50:28.508Z,39.38
2023-05-12T07:51:19.424Z,50.62
2023-05-12T07:52:10.349Z,45.00
2023-05-12T07:53:01.270Z,39.38
2023-05-12T07:53:52.184Z,45.00
2023-05-12T07:54:43.101Z,39.38
2023-05-12T07:55:34.006Z,39.38
2023-05-12T07:56:24.936Z,39.38
2023-05-12T07:57:15.843Z,61.88
2023-05-12T07:58:06.768Z,39.38
2023-05-12T07:58:57.709Z,39.38
2023-05-12T07:59:48.578Z,39.38
2023-05-12T08:00:39.485Z,67.50
2023-05-12T08:01:30.425Z,56.25
2023-05-12T08:02:21.409Z,33.75
2023-05-12T08:03:12.395Z,33.75
2023-05-12T08:04:03.499Z,28.12
2023-05-12T08:04:54.398Z,61.88
2023-05-12T08:05:45.309Z,28.12
2023-05-12T08:06:36.223Z,28.12
2023-05-12T08:07:27.145Z,28.12
2023-05-12T08:08:18.056Z,56.25
2023-05-12T08:09:08.977Z,28.12
2023-05-12T08:09:59.885Z,56.25
2023-05-12T08:10:50.787Z,56.25
2023-05-12T08:11:43.215Z,50.62
2023-05-12T08:12:32.466Z,33.75
2023-05-12T08:13:23.390Z,28.12
2023-05-12T08:14:14.353Z,28.12
2023-05-12T08:15:05.261Z,28.12
2023-05-12T08:15:56.166Z,28.12
2023-05-12T08:16:47.212Z,28.12
2023-05-12T08:17:38.097Z,39.38
2023-05-12T08:18:29.000Z,56.25
2023-05-12T08:19:19.906Z,56.25
2023-05-12T08:20:10.863Z,28.12
2023-05-12T08:21:01.740Z,28.12
2023-05-12T08:21:52.651Z,28.12
2023-05-12T08:22:43.573Z,33.75
2023-05-12T08:23:34.486Z,28.12
2023-05-12T08:24:25.396Z,33.75
2023-05-12T08:25:16.322Z,28.12
2023-05-12T08:26:07.229Z,39.38
2023-05-12T08:26:58.155Z,28.12
2023-05-12T08:27:49.066Z,33.75
2023-05-12T08:28:40.043Z,28.12
2023-05-12T08:29:30.908Z,56.25
2023-05-12T08:30:21.831Z,33.75
2023-05-12T08:31:12.842Z,28.12
2023-05-12T08:32:03.964Z,33.75
2023-05-12T08:32:54.853Z,33.75
2023-05-12T08:33:46.353Z,33.75
2023-05-12T08:34:36.702Z,50.62
2023-05-12T08:35:27.614Z,28.12
2023-05-12T08:36:18.526Z,61.88
2023-05-12T08:37:09.470Z,61.88
2023-05-12T08:38:00.407Z,33.75
2023-05-12T08:38:51.298Z,33.75
2023-05-12T08:39:42.234Z,61.88
2023-05-12T08:40:33.160Z,61.88
2023-05-12T08:41:24.073Z,61.88
2023-05-12T08:42:15.013Z,33.75
2023-05-12T08:43:05.915Z,33.75
2023-05-12T08:43:56.836Z,39.38
2023-05-12T08:44:47.748Z,39.38
2023-05-12T08:45:38.669Z,45.00
2023-05-12T08:46:29.619Z,33.75
2023-05-12T08:47:20.561Z,67.50
2023-05-12T08:48:11.484Z,39.38
2023-05-12T08:49:02.490Z,50.62
2023-05-12T08:49:53.395Z,39.38
2023-05-12T08:50:44.315Z,45.00
2023-05-12T08:51:35.226Z,61.88
2023-05-12T08:52:26.151Z,50.62
2023-05-12T08:53:17.075Z,39.38
2023-05-12T08:54:08.001Z,67.50
2023-05-12T08:55:00.050Z,67.50
2023-05-12T08:57:08.223Z,67.50
2023-05-12T08:57:31.902Z,61.88
2023-05-12T08:58:33.909Z,45.00
2023-05-12T08:59:14.725Z,45.00
2023-05-12T09:00:04.456Z,50.62
2023-05-12T09:00:55.404Z,45.00
2023-05-12T09:01:46.324Z,45.00
2023-05-12T09:02:48.723Z,73.12
2023-05-12T09:03:29.198Z,50.62
2023-05-12T09:04:18.913Z,56.25
2023-05-12T09:05:09.784Z,50.62
2023-05-12T09:06:00.701Z,50.62
2023-05-12T09:06:53.581Z,50.62
2023-05-12T09:07:42.835Z,45.00
2023-05-12T09:08:33.765Z,61.88
2023-05-12T09:09:24.661Z,50.62
2023-05-12T09:10:29.838Z,78.75
2023-05-12T09:11:06.482Z,56.25
2023-05-12T09:11:57.411Z,50.62
2023-05-12T09:12:48.328Z,50.62
2023-05-12T09:13:39.250Z,61.88
2023-05-12T09:14:30.197Z,56.25
2023-05-12T09:15:21.335Z,56.25
2023-05-12T09:16:11.813Z,61.88
2023-05-12T09:17:02.709Z,84.38
2023-05-12T09:17:53.716Z,56.25
2023-05-12T09:18:44.617Z,84.38
2023-05-12T09:19:35.526Z,67.50
2023-05-12T09:20:31.478Z,78.75
2023-05-12T09:21:18.335Z,56.25
2023-05-12T09:22:08.023Z,78.75
2023-05-12T09:22:58.986Z,67.50
2023-05-12T09:23:49.878Z,67.50
2023-05-12T09:24:40.871Z,61.88
2023-05-12T09:25:31.722Z,56.25
2023-05-12T09:26:23.208Z,78.75
2023-05-12T09:27:13.506Z,56.25
2023-05-12T09:28:04.432Z,78.75
2023-05-12T09:28:55.350Z,56.25
2023-05-12T09:29:58.025Z,56.25
2023-05-12T09:30:38.234Z,84.38
2023-05-12T09:31:28.000Z,78.75
2023-05-12T09:32:18.889Z,84.38
2023-05-12T09:33:09.899Z,84.38
2023-05-12T09:34:00.752Z,84.38
2023-05-12T09:34:51.693Z,56.25
2023-05-12T09:35:42.592Z,84.38
2023-05-12T09:36:33.286Z,56.25
2023-05-12T09:37:24.213Z,73.12
2023-05-12T09:38:15.170Z,90.00
2023-05-12T09:39:06.074Z,67.50
2023-05-12T09:39:57.000Z,61.88
2023-05-12T09:40:47.914Z,73.12
2023-05-12T09:41:38.841Z,67.50
2023-05-12T09:42:29.752Z,67.50
2023-05-12T09:43:20.682Z,73.12
2023-05-12T09:44:11.595Z,95.62
2023-05-12T09:45:02.518Z,67.50
2023-05-12T09:45:53.457Z,67.50
2023-05-12T09:46:44.353Z,67.50
2023-05-12T09:47:35.288Z,67.50
2023-05-12T09:48:27.580Z,67.50
2023-05-12T09:49:17.281Z,73.12
2023-05-12T09:50:08.231Z,84.38
2023-05-12T09:50:59.129Z,73.12
2023-05-12T09:51:50.058Z,73.12
2023-05-12T09:52:41.118Z,84.38
2023-05-12T09:53:31.980Z,78.75
2023-05-12T09:54:22.934Z,84.38
2023-05-12T09:55:13.861Z,78.75
2023-05-12T09:56:04.782Z,73.12
2023-05-12T09:56:55.707Z,78.75
2023-05-12T09:57:46.830Z,95.62
2023-05-12T09:58:37.783Z,73.12
2023-05-12T09:59:28.767Z,84.38
2023-05-12T10:00:33.147Z,84.38
2023-05-12T10:02:01.354Z,95.62
2023-05-12T10:02:52.354Z,101.25
2023-05-12T10:03:43.324Z,84.38
2023-05-12T10:04:34.225Z,90.00
2023-05-12T10:05:25.147Z,101.25
2023-05-12T10:06:16.080Z,84.38
2023-05-12T10:07:07.014Z,73.12
2023-05-12T10:07:58.036Z,101.25
2023-05-12T10:08:48.983Z,78.75
2023-05-12T10:09:39.997Z,101.25
2023-05-12T10:10:30.922Z,95.62
2023-05-12T10:11:21.886Z,95.62
2023-05-12T10:12:12.818Z,90.00
2023-05-12T10:13:03.805Z,101.25
2023-05-12T10:13:54.732Z,95.62
2023-05-12T10:14:45.794Z,78.75
2023-05-12T10:15:36.699Z,95.62
2023-05-12T10:16:27.675Z,78.75
2023-05-12T10:17:18.581Z,90.00
2023-05-12T10:18:09.648Z,101.25
2023-05-12T10:19:00.649Z,101.25
2023-05-12T10:19:51.518Z,95.62
2023-05-12T10:20:42.532Z,90.00
2023-05-12T10:21:33.467Z,84.38
2023-05-12T10:22:24.425Z,90.00
2023-05-12T10:23:15.369Z,84.38
2023-05-12T10:24:06.306Z,84.38
2023-05-12T10:24:57.242Z,84.38
2023-05-12T10:25:48.212Z,84.38
2023-05-12T10:26:41.749Z,106.88
2023-05-12T10:27:30.293Z,106.88
2023-05-12T10:28:21.227Z,78.75
2023-05-12T10:29:12.182Z,84.38
2023-05-12T10:30:03.114Z,112.50
2023-05-12T10:30:54.105Z,101.25
2023-05-12T10:31:45.269Z,112.50
2023-05-12T10:32:35.810Z,67.50
2023-05-12T10:33:26.710Z,90.00
2023-05-12T10:34:17.777Z,84.38
2023-05-12T10:35:08.673Z,61.88
2023-05-12T10:35:59.648Z,61.88
2023-05-12T10:36:50.574Z,112.50
2023-05-12T10:37:41.545Z,118.12
2023-05-12T10:38:32.506Z,95.62
2023-05-12T10:39:23.531Z,90.00
2023-05-12T10:40:14.464Z,101.25
2023-05-12T10:41:05.418Z,118.12
2023-05-12T10:41:56.345Z,95.62
2023-05-12T10:42:47.294Z,95.62
2023-05-12T10:43:38.234Z,112.50
2023-05-12T10:44:29.291Z,112.50
2023-05-12T10:45:20.558Z,106.88
2023-05-12T10:46:11.111Z,101.25
2023-05-12T10:47:02.007Z,95.62
2023-05-12T10:47:53.057Z,101.25
2023-05-12T10:48:43.993Z,101.25
2023-05-12T10:49:35.022Z,118.12
2023-05-12T10:50:25.879Z,106.88
2023-05-12T10:51:16.851Z,95.62
2023-05-12T10:52:07.818Z,106.88
2023-05-12T10:52:58.842Z,95.62
2023-05-12T10:53:52.756Z,101.25
2023-05-12T10:54:40.723Z,101.25
2023-05-12T10:55:31.819Z,106.88
2023-05-12T10:56:23.166Z,90.00
2023-05-12T10:57:17.021Z,140.62
2023-05-12T10:58:05.191Z,129.38
2023-05-12T10:58:55.928Z,129.38
2023-05-12T10:59:46.685Z,140.62
2023-05-12T11:00:37.357Z,140.62
2023-05-12T11:01:28.809Z,140.62
2023-05-12T11:02:19.841Z,140.62
2023-05-12T11:03:11.589Z,140.62
2023-05-12T11:04:01.379Z,140.62
2023-05-12T11:04:52.947Z,146.25
2023-05-12T11:05:42.948Z,146.25
2023-05-12T11:06:34.366Z,146.25